Neoga, Illinois
Current Conditions -  °F | °C
As of 3:53 PM on Thursday 23 Oct 2014 (Local Time) from KMTO Reporting Station
Clear Clear  
Wind Chill: 59°   Ceiling: Unl
Heat Index: 59°   Visibility: 10mi
Dew Point: 42°   Wind: 3mph
Humidity: 53%   Direction: 210°SSW
Pressure: 30.13"   Gusts: NA
Location:  39.32°N, 88.45°W
Report Text: KMTO 232053Z AUTO 21003KT 10SM CLR 15/06 A3013 RMK AO2 SLP203 T01500056 56021
Loading
Personal Weather Stations






























Interactive Weather Map
Tropical Storm Tracking
New forecast layout! Learn more

10-Day Weather Forecast

Advertisements
Track Severe Weather on mobile